sensor_id;sensor_type;location;lat;lon;timestamp;temperature;humidity
44886;DHT22;36669;51.428;21.162;2023-06-26T00:00:19;16.30;99.90
44886;DHT22;36669;51.428;21.162;2023-06-26T00:02:45;16.20;99.90
44886;DHT22;36669;51.428;21.162;2023-06-26T00:05:11;16.20;99.90
44886;DHT22;36669;51.428;21.162;2023-06-26T00:07:37;16.30;99.90
44886;DHT22;36669;51.428;21.162;2023-06-26T00:10:03;16.30;99.90
44886;DHT22;36669;51.428;21.162;2023-06-26T00:12:30;16.30;99.90
44886;DHT22;36669;51.428;21.162;2023-06-26T00:14:56;16.30;99.90
44886;DHT22;36669;51.428;21.162;2023-06-26T00:17:22;16.20;99.90
44886;DHT22;36669;51.428;21.162;2023-06-26T00:19:48;16.20;99.90
44886;DHT22;36669;51.428;21.162;2023-06-26T00:22:13;16.10;99.90
44886;DHT22;36669;51.428;21.162;2023-06-26T00:24:39;16.00;99.90
44886;DHT22;36669;51.428;21.162;2023-06-26T00:27:05;16.00;99.90
44886;DHT22;36669;51.428;21.162;2023-06-26T00:29:30;15.90;99.90
44886;DHT22;36669;51.428;21.162;2023-06-26T00:31:56;15.90;99.90
44886;DHT22;36669;51.428;21.162;2023-06-26T00:34:22;15.80;99.90
44886;DHT22;36669;51.428;21.162;2023-06-26T00:36:47;15.80;99.90
44886;DHT22;36669;51.428;21.162;2023-06-26T00:39:13;15.70;99.90
44886;DHT22;36669;51.428;21.162;2023-06-26T00:41:39;15.60;99.90
44886;DHT22;36669;51.428;21.162;2023-06-26T00:44:05;15.50;99.90
44886;DHT22;36669;51.428;21.162;2023-06-26T00:46:32;15.50;99.90
44886;DHT22;36669;51.428;21.162;2023-06-26T00:48:59;15.50;99.90
44886;DHT22;36669;51.428;21.162;2023-06-26T00:51:30;15.40;99.90
44886;DHT22;36669;51.428;21.162;2023-06-26T00:53:56;15.40;99.90
44886;DHT22;36669;51.428;21.162;2023-06-26T00:56:22;15.40;99.90
44886;DHT22;36669;51.428;21.162;2023-06-26T00:58:48;15.30;99.90
44886;DHT22;36669;51.428;21.162;2023-06-26T01:01:14;15.30;99.90
44886;DHT22;36669;51.428;21.162;2023-06-26T01:03:43;15.30;99.90
44886;DHT22;36669;51.428;21.162;2023-06-26T01:06:11;15.30;99.90
44886;DHT22;36669;51.428;21.162;2023-06-26T01:08:39;15.30;99.90
44886;DHT22;36669;51.428;21.162;2023-06-26T01:11:06;15.20;99.90
44886;DHT22;36669;51.428;21.162;2023-06-26T01:13:33;15.20;99.90
44886;DHT22;36669;51.428;21.162;2023-06-26T01:15:59;15.10;99.90
44886;DHT22;36669;51.428;21.162;2023-06-26T01:18:26;15.10;99.90
44886;DHT22;36669;51.428;21.162;2023-06-26T01:20:52;15.10;99.90
44886;DHT22;36669;51.428;21.162;2023-06-26T01:23:24;15.10;99.90
44886;DHT22;36669;51.428;21.162;2023-06-26T01:26:17;15.10;99.90
44886;DHT22;36669;51.428;21.162;2023-06-26T01:28:44;15.10;99.90
44886;DHT22;36669;51.428;21.162;2023-06-26T01:31:11;15.10;99.90
44886;DHT22;36669;51.428;21.162;2023-06-26T01:33:38;15.10;99.90
44886;DHT22;36669;51.428;21.162;2023-06-26T01:36:04;15.10;99.90
44886;DHT22;36669;51.428;21.162;2023-06-26T01:38:30;15.10;99.90
44886;DHT22;36669;51.428;21.162;2023-06-26T01:40:56;15.00;99.90
44886;DHT22;36669;51.428;21.162;2023-06-26T01:49:09;15.00;99.90
44886;DHT22;36669;51.428;21.162;2023-06-26T01:51:54;15.10;99.90
44886;DHT22;36669;51.428;21.162;2023-06-26T01:54:23;15.10;99.90
44886;DHT22;36669;51.428;21.162;2023-06-26T01:56:52;15.00;99.90
44886;DHT22;36669;51.428;21.162;2023-06-26T01:59:20;15.10;99.90
44886;DHT22;36669;51.428;21.162;2023-06-26T02:01:47;15.00;99.90
44886;DHT22;36669;51.428;21.162;2023-06-26T02:04:13;15.00;99.90
44886;DHT22;36669;51.428;21.162;2023-06-26T02:06:39;15.00;99.90
44886;DHT22;36669;51.428;21.162;2023-06-26T02:09:04;14.90;99.90
44886;DHT22;36669;51.428;21.162;2023-06-26T02:11:30;14.90;99.90
44886;DHT22;36669;51.428;21.162;2023-06-26T02:13:55;14.80;99.90
44886;DHT22;36669;51.428;21.162;2023-06-26T02:16:21;14.80;99.90
44886;DHT22;36669;51.428;21.162;2023-06-26T02:18:46;14.80;99.90
44886;DHT22;36669;51.428;21.162;2023-06-26T02:21:13;14.70;99.90
44886;DHT22;36669;51.428;21.162;2023-06-26T02:23:38;14.70;99.90
44886;DHT22;36669;51.428;21.162;2023-06-26T02:26:04;14.60;99.90
44886;DHT22;36669;51.428;21.162;2023-06-26T02:28:30;14.60;99.90
44886;DHT22;36669;51.428;21.162;2023-06-26T02:30:56;14.60;99.90
44886;DHT22;36669;51.428;21.162;2023-06-26T02:33:22;14.60;99.90
44886;DHT22;36669;51.428;21.162;2023-06-26T02:35:48;14.50;99.90
44886;DHT22;36669;51.428;21.162;2023-06-26T02:38:15;14.50;99.90
44886;DHT22;36669;51.428;21.162;2023-06-26T02:40:41;14.50;99.90
44886;DHT22;36669;51.428;21.162;2023-06-26T02:43:06;14.50;99.90
44886;DHT22;36669;51.428;21.162;2023-06-26T02:45:32;14.50;99.90
44886;DHT22;36669;51.428;21.162;2023-06-26T02:47:57;14.40;99.90
44886;DHT22;36669;51.428;21.162;2023-06-26T02:50:23;14.40;99.90
44886;DHT22;36669;51.428;21.162;2023-06-26T02:52:49;14.40;99.90
44886;DHT22;36669;51.428;21.162;2023-06-26T02:55:18;14.40;99.90
44886;DHT22;36669;51.428;21.162;2023-06-26T02:57:44;14.40;99.90
44886;DHT22;36669;51.428;21.162;2023-06-26T03:00:10;14.40;99.90
44886;DHT22;36669;51.428;21.162;2023-06-26T03:02:36;14.40;99.90
44886;DHT22;36669;51.428;21.162;2023-06-26T03:05:02;14.40;99.90
44886;DHT22;36669;51.428;21.162;2023-06-26T03:07:29;14.50;99.90
44886;DHT22;36669;51.428;21.162;2023-06-26T03:09:55;14.50;99.90
44886;DHT22;36669;51.428;21.162;2023-06-26T03:12:20;14.50;99.90
44886;DHT22;36669;51.428;21.162;2023-06-26T03:14:46;14.50;99.90
44886;DHT22;36669;51.428;21.162;2023-06-26T03:17:11;14.50;99.90
44886;DHT22;36669;51.428;21.162;2023-06-26T03:19:37;14.50;99.90
44886;DHT22;36669;51.428;21.162;2023-06-26T03:22:03;14.60;99.90
44886;DHT22;36669;51.428;21.162;2023-06-26T03:24:31;14.60;99.90
44886;DHT22;36669;51.428;21.162;2023-06-26T03:26:56;14.60;99.90
44886;DHT22;36669;51.428;21.162;2023-06-26T03:29:22;14.60;99.90
44886;DHT22;36669;51.428;21.162;2023-06-26T03:31:47;14.60;99.90
44886;DHT22;36669;51.428;21.162;2023-06-26T03:34:13;14.70;99.90
44886;DHT22;36669;51.428;21.162;2023-06-26T03:36:39;14.80;99.90
44886;DHT22;36669;51.428;21.162;2023-06-26T03:39:04;14.80;99.90
44886;DHT22;36669;51.428;21.162;2023-06-26T03:41:30;14.80;99.90
44886;DHT22;36669;51.428;21.162;2023-06-26T03:43:56;14.90;99.90
44886;DHT22;36669;51.428;21.162;2023-06-26T03:46:22;15.00;99.90
44886;DHT22;36669;51.428;21.162;2023-06-26T03:48:48;15.00;99.90
44886;DHT22;36669;51.428;21.162;2023-06-26T03:51:14;15.00;99.90
44886;DHT22;36669;51.428;21.162;2023-06-26T03:53:40;15.10;99.90
44886;DHT22;36669;51.428;21.162;2023-06-26T03:56:06;15.10;99.90
44886;DHT22;36669;51.428;21.162;2023-06-26T03:58:31;15.20;99.90
44886;DHT22;36669;51.428;21.162;2023-06-26T04:00:57;15.20;99.90
44886;DHT22;36669;51.428;21.162;2023-06-26T04:03:23;15.30;99.90
44886;DHT22;36669;51.428;21.162;2023-06-26T04:05:49;15.30;99.90
44886;DHT22;36669;51.428;21.162;2023-06-26T04:08:15;15.40;99.90
44886;DHT22;36669;51.428;21.162;2023-06-26T04:10:41;15.50;99.90
44886;DHT22;36669;51.428;21.162;2023-06-26T04:13:06;15.60;99.90
44886;DHT22;36669;51.428;21.162;2023-06-26T04:15:32;15.70;99.90
44886;DHT22;36669;51.428;21.162;2023-06-26T04:17:57;15.80;99.90
44886;DHT22;36669;51.428;21.162;2023-06-26T04:20:23;15.90;99.90
44886;DHT22;36669;51.428;21.162;2023-06-26T04:22:48;16.00;99.90
44886;DHT22;36669;51.428;21.162;2023-06-26T04:25:14;16.10;99.90
44886;DHT22;36669;51.428;21.162;2023-06-26T04:27:40;16.10;99.90
44886;DHT22;36669;51.428;21.162;2023-06-26T04:30:06;16.20;99.90
44886;DHT22;36669;51.428;21.162;2023-06-26T04:32:32;16.30;99.90
44886;DHT22;36669;51.428;21.162;2023-06-26T04:34:57;16.30;99.90
44886;DHT22;36669;51.428;21.162;2023-06-26T04:37:23;16.30;99.90
44886;DHT22;36669;51.428;21.162;2023-06-26T04:39:50;16.40;99.90
44886;DHT22;36669;51.428;21.162;2023-06-26T04:42:15;16.40;99.90
44886;DHT22;36669;51.428;21.162;2023-06-26T04:44:41;16.50;99.90
44886;DHT22;36669;51.428;21.162;2023-06-26T04:47:08;16.50;99.90
44886;DHT22;36669;51.428;21.162;2023-06-26T04:49:33;16.60;99.90
44886;DHT22;36669;51.428;21.162;2023-06-26T04:51:59;16.60;99.90
44886;DHT22;36669;51.428;21.162;2023-06-26T04:54:28;16.70;99.90
44886;DHT22;36669;51.428;21.162;2023-06-26T04:56:54;16.80;99.90
44886;DHT22;36669;51.428;21.162;2023-06-26T04:59:19;16.80;99.90
44886;DHT22;36669;51.428;21.162;2023-06-26T05:01:45;17.00;99.90
44886;DHT22;36669;51.428;21.162;2023-06-26T05:04:14;17.00;99.90
44886;DHT22;36669;51.428;21.162;2023-06-26T05:06:40;17.10;99.90
44886;DHT22;36669;51.428;21.162;2023-06-26T05:09:06;17.10;99.90
44886;DHT22;36669;51.428;21.162;2023-06-26T05:11:32;17.20;99.90
44886;DHT22;36669;51.428;21.162;2023-06-26T05:13:58;17.30;99.90
44886;DHT22;36669;51.428;21.162;2023-06-26T05:16:23;17.30;99.90
44886;DHT22;36669;51.428;21.162;2023-06-26T05:18:49;17.40;99.90
44886;DHT22;36669;51.428;21.162;2023-06-26T05:21:16;17.50;99.90
44886;DHT22;36669;51.428;21.162;2023-06-26T05:23:42;17.60;99.90
44886;DHT22;36669;51.428;21.162;2023-06-26T05:26:10;17.70;99.90
44886;DHT22;36669;51.428;21.162;2023-06-26T05:28:36;17.70;99.90
44886;DHT22;36669;51.428;21.162;2023-06-26T05:31:02;17.80;99.90
44886;DHT22;36669;51.428;21.162;2023-06-26T05:33:30;17.90;99.90
44886;DHT22;36669;51.428;21.162;2023-06-26T05:35:56;17.90;99.90
44886;DHT22;36669;51.428;21.162;2023-06-26T05:38:24;18.00;99.90
44886;DHT22;36669;51.428;21.162;2023-06-26T05:40:50;18.10;99.90
44886;DHT22;36669;51.428;21.162;2023-06-26T05:43:16;18.10;99.90
44886;DHT22;36669;51.428;21.162;2023-06-26T05:45:48;18.20;99.90
44886;DHT22;36669;51.428;21.162;2023-06-26T05:48:14;18.30;99.90
44886;DHT22;36669;51.428;21.162;2023-06-26T05:50:40;18.40;99.90
44886;DHT22;36669;51.428;21.162;2023-06-26T05:53:08;18.40;99.90
44886;DHT22;36669;51.428;21.162;2023-06-26T05:55:33;18.50;99.90
44886;DHT22;36669;51.428;21.162;2023-06-26T05:58:00;18.70;99.90
44886;DHT22;36669;51.428;21.162;2023-06-26T06:00:27;18.80;99.90
44886;DHT22;36669;51.428;21.162;2023-06-26T06:02:52;18.90;99.90
44886;DHT22;36669;51.428;21.162;2023-06-26T06:05:22;19.10;99.90
44886;DHT22;36669;51.428;21.162;2023-06-26T06:07:48;19.20;99.90
44886;DHT22;36669;51.428;21.162;2023-06-26T06:10:13;19.40;99.90
44886;DHT22;36669;51.428;21.162;2023-06-26T06:12:39;19.50;99.90
44886;DHT22;36669;51.428;21.162;2023-06-26T06:15:06;19.60;99.90
44886;DHT22;36669;51.428;21.162;2023-06-26T06:17:31;19.70;99.90
44886;DHT22;36669;51.428;21.162;2023-06-26T06:19:57;19.80;99.90
44886;DHT22;36669;51.428;21.162;2023-06-26T06:22:23;19.80;99.90
44886;DHT22;36669;51.428;21.162;2023-06-26T06:24:49;19.90;99.90
44886;DHT22;36669;51.428;21.162;2023-06-26T06:27:15;20.00;99.90
44886;DHT22;36669;51.428;21.162;2023-06-26T06:29:41;20.00;99.90
44886;DHT22;36669;51.428;21.162;2023-06-26T06:32:07;20.00;99.90
44886;DHT22;36669;51.428;21.162;2023-06-26T06:34:32;20.10;99.90
44886;DHT22;36669;51.428;21.162;2023-06-26T06:36:58;20.20;99.90
44886;DHT22;36669;51.428;21.162;2023-06-26T06:39:24;20.20;99.90
44886;DHT22;36669;51.428;21.162;2023-06-26T06:41:49;20.30;99.90
44886;DHT22;36669;51.428;21.162;2023-06-26T06:44:15;20.50;99.90
44886;DHT22;36669;51.428;21.162;2023-06-26T06:46:40;20.60;99.90
44886;DHT22;36669;51.428;21.162;2023-06-26T06:49:08;20.70;99.90
44886;DHT22;36669;51.428;21.162;2023-06-26T06:51:33;20.80;99.90
44886;DHT22;36669;51.428;21.162;2023-06-26T06:53:59;20.90;99.90
44886;DHT22;36669;51.428;21.162;2023-06-26T06:56:24;21.10;99.90
44886;DHT22;36669;51.428;21.162;2023-06-26T06:58:50;21.20;99.90
44886;DHT22;36669;51.428;21.162;2023-06-26T07:01:15;21.30;99.90
44886;DHT22;36669;51.428;21.162;2023-06-26T07:03:41;21.40;99.90
44886;DHT22;36669;51.428;21.162;2023-06-26T07:06:07;21.40;99.90
44886;DHT22;36669;51.428;21.162;2023-06-26T07:08:33;21.60;99.90
44886;DHT22;36669;51.428;21.162;2023-06-26T07:10:58;21.60;99.90
44886;DHT22;36669;51.428;21.162;2023-06-26T07:13:24;21.70;99.90
44886;DHT22;36669;51.428;21.162;2023-06-26T07:15:50;21.70;99.90
44886;DHT22;36669;51.428;21.162;2023-06-26T07:18:16;21.80;99.90
44886;DHT22;36669;51.428;21.162;2023-06-26T07:20:42;21.90;99.90
44886;DHT22;36669;51.428;21.162;2023-06-26T07:23:08;21.90;99.90
44886;DHT22;36669;51.428;21.162;2023-06-26T07:25:34;22.00;99.90
44886;DHT22;36669;51.428;21.162;2023-06-26T07:27:59;22.10;99.90
44886;DHT22;36669;51.428;21.162;2023-06-26T07:30:25;22.10;99.90
44886;DHT22;36669;51.428;21.162;2023-06-26T07:32:51;22.20;99.90
44886;DHT22;36669;51.428;21.162;2023-06-26T07:35:16;22.20;99.90
44886;DHT22;36669;51.428;21.162;2023-06-26T07:37:42;22.30;99.90
44886;DHT22;36669;51.428;21.162;2023-06-26T07:40:08;22.30;99.90
44886;DHT22;36669;51.428;21.162;2023-06-26T07:42:34;22.40;99.90
44886;DHT22;36669;51.428;21.162;2023-06-26T07:45:00;22.50;99.90
44886;DHT22;36669;51.428;21.162;2023-06-26T07:47:25;22.60;99.90
44886;DHT22;36669;51.428;21.162;2023-06-26T07:49:51;22.80;99.90
44886;DHT22;36669;51.428;21.162;2023-06-26T07:52:18;22.80;99.90
44886;DHT22;36669;51.428;21.162;2023-06-26T07:54:44;22.90;99.90
44886;DHT22;36669;51.428;21.162;2023-06-26T07:57:10;23.00;99.90
44886;DHT22;36669;51.428;21.162;2023-06-26T07:59:37;23.10;99.90
44886;DHT22;36669;51.428;21.162;2023-06-26T08:02:03;23.20;99.90
44886;DHT22;36669;51.428;21.162;2023-06-26T08:04:29;23.40;99.90
44886;DHT22;36669;51.428;21.162;2023-06-26T08:06:58;23.30;99.90
44886;DHT22;36669;51.428;21.162;2023-06-26T08:09:26;23.30;99.90
44886;DHT22;36669;51.428;21.162;2023-06-26T08:11:52;23.20;99.90
44886;DHT22;36669;51.428;21.162;2023-06-26T08:14:18;23.20;99.90
44886;DHT22;36669;51.428;21.162;2023-06-26T08:16:45;23.40;99.90
44886;DHT22;36669;51.428;21.162;2023-06-26T08:19:11;23.50;99.90
44886;DHT22;36669;51.428;21.162;2023-06-26T08:21:37;23.70;99.90
44886;DHT22;36669;51.428;21.162;2023-06-26T08:24:03;23.70;99.90
44886;DHT22;36669;51.428;21.162;2023-06-26T08:26:29;23.70;99.50
44886;DHT22;36669;51.428;21.162;2023-06-26T08:28:54;23.60;98.40
44886;DHT22;36669;51.428;21.162;2023-06-26T08:31:20;23.70;97.40
44886;DHT22;36669;51.428;21.162;2023-06-26T08:33:46;23.70;97.50
44886;DHT22;36669;51.428;21.162;2023-06-26T08:36:12;23.70;98.70
44886;DHT22;36669;51.428;21.162;2023-06-26T08:38:37;23.70;96.20
44886;DHT22;36669;51.428;21.162;2023-06-26T08:41:06;23.90;96.90
44886;DHT22;36669;51.428;21.162;2023-06-26T08:43:32;23.70;94.30
44886;DHT22;36669;51.428;21.162;2023-06-26T08:45:58;23.90;96.50
44886;DHT22;36669;51.428;21.162;2023-06-26T08:48:24;24.10;94.60
44886;DHT22;36669;51.428;21.162;2023-06-26T08:50:52;24.10;90.60
44886;DHT22;36669;51.428;21.162;2023-06-26T08:53:32;24.20;91.60
44886;DHT22;36669;51.428;21.162;2023-06-26T08:55:59;24.50;92.60
44886;DHT22;36669;51.428;21.162;2023-06-26T08:58:25;24.50;92.30
44886;DHT22;36669;51.428;21.162;2023-06-26T09:00:52;24.50;92.10
44886;DHT22;36669;51.428;21.162;2023-06-26T09:03:17;24.50;92.20
44886;DHT22;36669;51.428;21.162;2023-06-26T09:05:43;24.60;92.80
44886;DHT22;36669;51.428;21.162;2023-06-26T09:08:09;24.70;92.50
44886;DHT22;36669;51.428;21.162;2023-06-26T09:10:35;24.70;91.60
44886;DHT22;36669;51.428;21.162;2023-06-26T09:13:00;24.80;90.70
44886;DHT22;36669;51.428;21.162;2023-06-26T09:15:27;24.90;90.70
44886;DHT22;36669;51.428;21.162;2023-06-26T09:17:56;25.00;91.00
44886;DHT22;36669;51.428;21.162;2023-06-26T09:20:28;25.10;90.30
44886;DHT22;36669;51.428;21.162;2023-06-26T09:22:54;24.80;89.60
44886;DHT22;36669;51.428;21.162;2023-06-26T09:25:21;24.70;88.30
44886;DHT22;36669;51.428;21.162;2023-06-26T09:27:48;24.60;87.90
44886;DHT22;36669;51.428;21.162;2023-06-26T09:30:17;24.60;87.80
44886;DHT22;36669;51.428;21.162;2023-06-26T09:32:43;24.70;88.30
44886;DHT22;36669;51.428;21.162;2023-06-26T09:35:10;24.90;86.70
44886;DHT22;36669;51.428;21.162;2023-06-26T09:37:36;25.10;86.10
44886;DHT22;36669;51.428;21.162;2023-06-26T09:40:02;25.20;85.10
44886;DHT22;36669;51.428;21.162;2023-06-26T09:42:29;25.40;86.10
44886;DHT22;36669;51.428;21.162;2023-06-26T09:44:55;25.20;84.70
44886;DHT22;36669;51.428;21.162;2023-06-26T09:47:21;25.00;85.10
44886;DHT22;36669;51.428;21.162;2023-06-26T09:49:46;24.90;85.40
44886;DHT22;36669;51.428;21.162;2023-06-26T09:52:16;25.00;81.30
44886;DHT22;36669;51.428;21.162;2023-06-26T09:54:45;25.20;83.30
44886;DHT22;36669;51.428;21.162;2023-06-26T09:57:18;25.30;83.00
44886;DHT22;36669;51.428;21.162;2023-06-26T09:59:44;25.30;82.90
44886;DHT22;36669;51.428;21.162;2023-06-26T10:02:11;25.30;82.50
44886;DHT22;36669;51.428;21.162;2023-06-26T10:04:37;25.00;78.60
44886;DHT22;36669;51.428;21.162;2023-06-26T10:07:06;24.70;80.50
44886;DHT22;36669;51.428;21.162;2023-06-26T10:09:32;24.80;79.60
44886;DHT22;36669;51.428;21.162;2023-06-26T10:12:02;24.90;79.70
44886;DHT22;36669;51.428;21.162;2023-06-26T10:14:34;25.20;80.30
44886;DHT22;36669;51.428;21.162;2023-06-26T10:17:02;25.30;77.40
44886;DHT22;36669;51.428;21.162;2023-06-26T10:19:29;25.50;77.90
44886;DHT22;36669;51.428;21.162;2023-06-26T10:21:58;25.80;80.20
44886;DHT22;36669;51.428;21.162;2023-06-26T10:24:28;25.50;80.40
44886;DHT22;36669;51.428;21.162;2023-06-26T10:27:02;25.80;76.30
44886;DHT22;36669;51.428;21.162;2023-06-26T10:29:29;25.90;74.30
44886;DHT22;36669;51.428;21.162;2023-06-26T10:31:57;25.90;72.30
44886;DHT22;36669;51.428;21.162;2023-06-26T10:34:24;26.00;73.80
44886;DHT22;36669;51.428;21.162;2023-06-26T10:36:59;26.40;71.00
44886;DHT22;36669;51.428;21.162;2023-06-26T10:39:26;26.60;71.40
44886;DHT22;36669;51.428;21.162;2023-06-26T10:41:54;26.80;68.50
44886;DHT22;36669;51.428;21.162;2023-06-26T10:44:20;26.60;69.20
44886;DHT22;36669;51.428;21.162;2023-06-26T10:46:54;26.60;68.40
44886;DHT22;36669;51.428;21.162;2023-06-26T10:49:21;26.50;68.50
44886;DHT22;36669;51.428;21.162;2023-06-26T10:51:50;26.40;69.00
44886;DHT22;36669;51.428;21.162;2023-06-26T10:54:17;26.20;67.70
44886;DHT22;36669;51.428;21.162;2023-06-26T10:56:44;26.10;66.50
44886;DHT22;36669;51.428;21.162;2023-06-26T10:59:15;26.00;67.70
44886;DHT22;36669;51.428;21.162;2023-06-26T11:01:42;26.20;68.70
44886;DHT22;36669;51.428;21.162;2023-06-26T11:04:09;26.30;70.10
44886;DHT22;36669;51.428;21.162;2023-06-26T11:06:36;26.30;69.00
44886;DHT22;36669;51.428;21.162;2023-06-26T11:14:18;26.60;67.90
44886;DHT22;36669;51.428;21.162;2023-06-26T11:16:44;26.10;69.30
44886;DHT22;36669;51.428;21.162;2023-06-26T11:19:10;26.50;70.20
44886;DHT22;36669;51.428;21.162;2023-06-26T11:21:39;26.60;71.60
44886;DHT22;36669;51.428;21.162;2023-06-26T11:24:06;26.90;69.60
44886;DHT22;36669;51.428;21.162;2023-06-26T11:26:38;27.00;69.60
44886;DHT22;36669;51.428;21.162;2023-06-26T11:29:04;26.60;68.70
44886;DHT22;36669;51.428;21.162;2023-06-26T11:31:35;26.80;69.70
44886;DHT22;36669;51.428;21.162;2023-06-26T11:34:04;27.00;69.40
44886;DHT22;36669;51.428;21.162;2023-06-26T11:36:31;26.80;69.20
44886;DHT22;36669;51.428;21.162;2023-06-26T11:38:58;26.80;70.30
44886;DHT22;36669;51.428;21.162;2023-06-26T11:41:25;26.90;69.50
44886;DHT22;36669;51.428;21.162;2023-06-26T11:43:52;27.10;68.00
44886;DHT22;36669;51.428;21.162;2023-06-26T11:46:21;27.30;67.50
44886;DHT22;36669;51.428;21.162;2023-06-26T11:48:47;27.50;67.80
44886;DHT22;36669;51.428;21.162;2023-06-26T11:51:14;27.80;68.40
44886;DHT22;36669;51.428;21.162;2023-06-26T11:53:45;27.80;66.50
44886;DHT22;36669;51.428;21.162;2023-06-26T11:56:11;27.40;67.50
44886;DHT22;36669;51.428;21.162;2023-06-26T11:59:03;26.90;67.50
44886;DHT22;36669;51.428;21.162;2023-06-26T12:01:35;26.80;68.90
44886;DHT22;36669;51.428;21.162;2023-06-26T12:04:03;27.30;69.60
44886;DHT22;36669;51.428;21.162;2023-06-26T12:06:34;27.50;68.40
44886;DHT22;36669;51.428;21.162;2023-06-26T12:09:06;27.30;70.00
44886;DHT22;36669;51.428;21.162;2023-06-26T12:11:35;27.30;68.40
44886;DHT22;36669;51.428;21.162;2023-06-26T12:14:01;27.10;68.00
44886;DHT22;36669;51.428;21.162;2023-06-26T12:16:30;27.20;69.60
44886;DHT22;36669;51.428;21.162;2023-06-26T12:19:00;27.50;70.20
44886;DHT22;36669;51.428;21.162;2023-06-26T12:24:08;27.30;70.00
44886;DHT22;36669;51.428;21.162;2023-06-26T12:26:34;27.30;70.00
44886;DHT22;36669;51.428;21.162;2023-06-26T12:29:03;27.80;69.60
44886;DHT22;36669;51.428;21.162;2023-06-26T12:31:29;27.60;69.10
44886;DHT22;36669;51.428;21.162;2023-06-26T12:33:56;27.80;67.90
44886;DHT22;36669;51.428;21.162;2023-06-26T12:36:21;27.80;68.30
44886;DHT22;36669;51.428;21.162;2023-06-26T12:38:48;27.60;68.90
44886;DHT22;36669;51.428;21.162;2023-06-26T12:41:15;26.90;69.70
44886;DHT22;36669;51.428;21.162;2023-06-26T12:43:42;27.50;69.70
44886;DHT22;36669;51.428;21.162;2023-06-26T12:46:08;27.80;67.60
44886;DHT22;36669;51.428;21.162;2023-06-26T12:48:43;27.90;66.30
44886;DHT22;36669;51.428;21.162;2023-06-26T12:51:12;27.90;66.40
44886;DHT22;36669;51.428;21.162;2023-06-26T12:53:39;27.90;66.40
44886;DHT22;36669;51.428;21.162;2023-06-26T12:56:08;28.00;67.20
44886;DHT22;36669;51.428;21.162;2023-06-26T12:58:35;28.40;68.00
44886;DHT22;36669;51.428;21.162;2023-06-26T13:01:03;28.50;67.10
44886;DHT22;36669;51.428;21.162;2023-06-26T13:03:29;28.80;66.20
44886;DHT22;36669;51.428;21.162;2023-06-26T13:05:55;29.00;65.00
44886;DHT22;36669;51.428;21.162;2023-06-26T13:08:21;29.30;64.40
44886;DHT22;36669;51.428;21.162;2023-06-26T13:10:46;29.50;63.10
44886;DHT22;36669;51.428;21.162;2023-06-26T13:13:12;29.70;62.80
44886;DHT22;36669;51.428;21.162;2023-06-26T13:15:38;28.80;63.30
44886;DHT22;36669;51.428;21.162;2023-06-26T13:18:03;27.80;67.00
44886;DHT22;36669;51.428;21.162;2023-06-26T13:20:29;28.20;65.90
44886;DHT22;36669;51.428;21.162;2023-06-26T13:22:55;27.80;65.80
44886;DHT22;36669;51.428;21.162;2023-06-26T13:25:21;27.60;68.70
44886;DHT22;36669;51.428;21.162;2023-06-26T13:27:47;28.40;66.40
44886;DHT22;36669;51.428;21.162;2023-06-26T13:30:13;28.70;66.40
44886;DHT22;36669;51.428;21.162;2023-06-26T13:32:39;28.30;67.30
44886;DHT22;36669;51.428;21.162;2023-06-26T13:35:05;28.50;68.50
44886;DHT22;36669;51.428;21.162;2023-06-26T13:37:31;29.40;65.80
44886;DHT22;36669;51.428;21.162;2023-06-26T13:39:59;30.80;65.50
44886;DHT22;36669;51.428;21.162;2023-06-26T13:42:26;31.60;61.90
44886;DHT22;36669;51.428;21.162;2023-06-26T13:44:52;31.60;61.20
44886;DHT22;36669;51.428;21.162;2023-06-26T13:47:17;32.40;59.90
44886;DHT22;36669;51.428;21.162;2023-06-26T13:49:43;32.90;58.10
44886;DHT22;36669;51.428;21.162;2023-06-26T13:52:09;32.40;58.30
44886;DHT22;36669;51.428;21.162;2023-06-26T13:54:36;32.90;56.10
44886;DHT22;36669;51.428;21.162;2023-06-26T13:57:03;33.70;54.20
44886;DHT22;36669;51.428;21.162;2023-06-26T13:59:30;34.40;52.80
44886;DHT22;36669;51.428;21.162;2023-06-26T14:01:56;34.90;52.60
44886;DHT22;36669;51.428;21.162;2023-06-26T14:04:21;34.90;52.20
44886;DHT22;36669;51.428;21.162;2023-06-26T14:06:47;32.50;53.30
44886;DHT22;36669;51.428;21.162;2023-06-26T14:09:13;32.80;54.60
44886;DHT22;36669;51.428;21.162;2023-06-26T14:11:38;33.40;53.10
44886;DHT22;36669;51.428;21.162;2023-06-26T14:14:04;33.70;52.70
44886;DHT22;36669;51.428;21.162;2023-06-26T14:16:30;34.00;52.40
44886;DHT22;36669;51.428;21.162;2023-06-26T14:18:57;31.60;53.70
44886;DHT22;36669;51.428;21.162;2023-06-26T14:21:23;31.50;55.00
44886;DHT22;36669;51.428;21.162;2023-06-26T14:23:49;31.80;54.40
44886;DHT22;36669;51.428;21.162;2023-06-26T14:26:14;30.90;54.80
44886;DHT22;36669;51.428;21.162;2023-06-26T14:28:40;32.00;54.60
44886;DHT22;36669;51.428;21.162;2023-06-26T14:31:06;32.90;52.70
44886;DHT22;36669;51.428;21.162;2023-06-26T14:33:33;33.30;51.40
44886;DHT22;36669;51.428;21.162;2023-06-26T14:35:58;33.40;50.40
44886;DHT22;36669;51.428;21.162;2023-06-26T14:38:24;33.00;50.90
44886;DHT22;36669;51.428;21.162;2023-06-26T14:40:50;32.20;52.70
44886;DHT22;36669;51.428;21.162;2023-06-26T14:43:15;32.00;51.30
44886;DHT22;36669;51.428;21.162;2023-06-26T14:45:41;32.40;51.80
44886;DHT22;36669;51.428;21.162;2023-06-26T14:48:07;33.10;51.80
44886;DHT22;36669;51.428;21.162;2023-06-26T14:50:33;33.30;51.10
44886;DHT22;36669;51.428;21.162;2023-06-26T14:52:59;32.10;52.10
44886;DHT22;36669;51.428;21.162;2023-06-26T14:55:24;30.90;54.20
44886;DHT22;36669;51.428;21.162;2023-06-26T14:57:50;30.10;56.30
44886;DHT22;36669;51.428;21.162;2023-06-26T15:00:16;29.60;56.90
44886;DHT22;36669;51.428;21.162;2023-06-26T15:02:42;29.00;57.10
44886;DHT22;36669;51.428;21.162;2023-06-26T15:05:08;28.60;58.20
44886;DHT22;36669;51.428;21.162;2023-06-26T15:07:33;28.50;58.00
44886;DHT22;36669;51.428;21.162;2023-06-26T15:09:59;29.60;58.00
44886;DHT22;36669;51.428;21.162;2023-06-26T15:12:25;31.00;56.70
44886;DHT22;36669;51.428;21.162;2023-06-26T15:14:52;32.40;54.40
44886;DHT22;36669;51.428;21.162;2023-06-26T15:17:18;33.20;51.90
44886;DHT22;36669;51.428;21.162;2023-06-26T15:19:44;32.20;51.40
44886;DHT22;36669;51.428;21.162;2023-06-26T15:22:09;31.90;52.30
44886;DHT22;36669;51.428;21.162;2023-06-26T15:24:35;32.10;52.60